sensor_id;sensor_type;location;lat;lon;timestamp;pressure;altitude;pressure_sealevel;temperature;humidity
68197;BME280;55019;49.382;11.358;2022-12-05T00:01:43;96255.66;;;3.94;100.00
68197;BME280;55019;49.382;11.358;2022-12-05T00:04:11;96256.72;;;3.92;100.00
68197;BME280;55019;49.382;11.358;2022-12-05T00:06:38;96248.25;;;3.91;100.00
68197;BME280;55019;49.382;11.358;2022-12-05T00:09:04;96253.75;;;3.87;100.00
68197;BME280;55019;49.382;11.358;2022-12-05T00:11:32;96254.44;;;3.98;100.00
68197;BME280;55019;49.382;11.358;2022-12-05T00:13:59;96262.25;;;3.97;100.00
68197;BME280;55019;49.382;11.358;2022-12-05T00:16:27;96258.75;;;3.98;100.00
68197;BME280;55019;49.382;11.358;2022-12-05T00:18:53;96263.75;;;3.99;100.00
68197;BME280;55019;49.382;11.358;2022-12-05T00:21:24;96261.72;;;3.93;100.00
68197;BME280;55019;49.382;11.358;2022-12-05T00:23:51;96271.25;;;3.91;100.00
68197;BME280;55019;49.382;11.358;2022-12-05T00:26:17;96271.50;;;3.88;100.00
68197;BME280;55019;49.382;11.358;2022-12-05T00:28:42;96266.22;;;3.80;100.00
68197;BME280;55019;49.382;11.358;2022-12-05T00:31:11;96283.63;;;3.86;100.00
68197;BME280;55019;49.382;11.358;2022-12-05T00:33:37;96278.63;;;3.85;100.00
68197;BME280;55019;49.382;11.358;2022-12-05T00:36:11;96276.06;;;3.85;100.00
68197;BME280;55019;49.382;11.358;2022-12-05T00:38:37;96269.84;;;3.78;100.00
68197;BME280;55019;49.382;11.358;2022-12-05T00:41:08;96271.16;;;3.72;100.00
68197;BME280;55019;49.382;11.358;2022-12-05T00:43:33;96267.41;;;3.76;100.00
68197;BME280;55019;49.382;11.358;2022-12-05T00:46:01;96272.41;;;3.78;100.00
68197;BME280;55019;49.382;11.358;2022-12-05T00:48:26;96281.69;;;3.79;100.00
68197;BME280;55019;49.382;11.358;2022-12-05T00:51:02;96280.59;;;3.81;100.00
68197;BME280;55019;49.382;11.358;2022-12-05T00:53:28;96282.31;;;3.71;100.00
68197;BME280;55019;49.382;11.358;2022-12-05T00:55:53;96278.75;;;3.83;100.00
68197;BME280;55019;49.382;11.358;2022-12-05T00:58:19;96288.03;;;3.84;100.00
68197;BME280;55019;49.382;11.358;2022-12-05T01:00:44;96284.78;;;3.82;100.00
68197;BME280;55019;49.382;11.358;2022-12-05T01:03:10;96284.78;;;3.82;100.00
68197;BME280;55019;49.382;11.358;2022-12-05T01:05:35;96295.94;;;3.81;100.00
68197;BME280;55019;49.382;11.358;2022-12-05T01:08:01;96307.28;;;3.88;100.00
68197;BME280;55019;49.382;11.358;2022-12-05T01:10:26;96305.63;;;3.78;100.00
68197;BME280;55019;49.382;11.358;2022-12-05T01:12:52;96305.38;;;3.81;100.00
68197;BME280;55019;49.382;11.358;2022-12-05T01:15:17;96311.53;;;3.78;100.00
68197;BME280;55019;49.382;11.358;2022-12-05T01:17:42;96307.41;;;3.87;100.00
68197;BME280;55019;49.382;11.358;2022-12-05T01:20:08;96301.34;;;3.88;100.00
68197;BME280;55019;49.382;11.358;2022-12-05T01:22:34;96301.88;;;3.82;100.00
68197;BME280;55019;49.382;11.358;2022-12-05T01:24:59;96317.25;;;3.91;100.00
68197;BME280;55019;49.382;11.358;2022-12-05T01:27:24;96320.81;;;3.79;100.00
68197;BME280;55019;49.382;11.358;2022-12-05T01:29:50;96329.06;;;3.83;100.00
68197;BME280;55019;49.382;11.358;2022-12-05T01:32:15;96325.94;;;3.79;100.00
68197;BME280;55019;49.382;11.358;2022-12-05T01:34:40;96326.06;;;3.78;100.00
68197;BME280;55019;49.382;11.358;2022-12-05T01:37:06;96327.53;;;3.71;100.00
68197;BME280;55019;49.382;11.358;2022-12-05T01:39:31;96342.03;;;3.70;100.00
68197;BME280;55019;49.382;11.358;2022-12-05T01:41:57;96331.72;;;3.81;100.00
68197;BME280;55019;49.382;11.358;2022-12-05T01:46:49;96333.56;;;3.70;100.00
68197;BME280;55019;49.382;11.358;2022-12-05T01:51:48;96338.94;;;3.67;100.00
68197;BME280;55019;49.382;11.358;2022-12-05T01:54:15;96342.97;;;3.69;100.00
68197;BME280;55019;49.382;11.358;2022-12-05T01:56:49;96350.94;;;3.76;100.00
68197;BME280;55019;49.382;11.358;2022-12-05T01:59:17;96355.28;;;3.85;100.00
68197;BME280;55019;49.382;11.358;2022-12-05T02:01:44;96359.19;;;3.89;100.00
68197;BME280;55019;49.382;11.358;2022-12-05T02:04:09;96354.03;;;3.79;100.00
68197;BME280;55019;49.382;11.358;2022-12-05T02:06:35;96360.53;;;3.83;100.00
68197;BME280;55019;49.382;11.358;2022-12-05T02:09:01;96361.91;;;3.87;100.00
68197;BME280;55019;49.382;11.358;2022-12-05T02:11:28;96360.31;;;3.96;100.00
68197;BME280;55019;49.382;11.358;2022-12-05T02:30:33;96388.69;;;3.72;100.00
68197;BME280;55019;49.382;11.358;2022-12-05T02:33:18;96394.63;;;3.73;100.00
68197;BME280;55019;49.382;11.358;2022-12-05T02:38:27;96395.69;;;3.70;100.00
68197;BME280;55019;49.382;11.358;2022-12-05T02:41:11;96410.66;;;3.75;100.00
68197;BME280;55019;49.382;11.358;2022-12-05T02:43:49;96410.50;;;3.76;100.00
68197;BME280;55019;49.382;11.358;2022-12-05T02:46:20;96412.63;;;3.71;100.00
68197;BME280;55019;49.382;11.358;2022-12-05T02:48:47;96407.16;;;3.55;100.00
68197;BME280;55019;49.382;11.358;2022-12-05T02:51:17;96407.16;;;3.55;100.00
68197;BME280;55019;49.382;11.358;2022-12-05T02:53:44;96404.09;;;3.61;100.00
68197;BME280;55019;49.382;11.358;2022-12-05T02:56:10;96414.69;;;3.57;100.00
68197;BME280;55019;49.382;11.358;2022-12-05T02:58:42;96414.38;;;3.50;100.00
68197;BME280;55019;49.382;11.358;2022-12-05T03:01:09;96408.22;;;3.53;100.00
68197;BME280;55019;49.382;11.358;2022-12-05T03:03:35;96420.72;;;3.56;100.00
68197;BME280;55019;49.382;11.358;2022-12-05T03:06:20;96428.78;;;3.51;100.00
68197;BME280;55019;49.382;11.358;2022-12-05T03:08:52;96424.34;;;3.53;100.00
68197;BME280;55019;49.382;11.358;2022-12-05T03:11:19;96429.63;;;3.41;100.00
68197;BME280;55019;49.382;11.358;2022-12-05T03:13:48;96433.19;;;3.49;100.00
68197;BME280;55019;49.382;11.358;2022-12-05T03:16:43;96439.59;;;3.44;100.00
68197;BME280;55019;49.382;11.358;2022-12-05T03:19:26;96447.25;;;3.44;100.00
68197;BME280;55019;49.382;11.358;2022-12-05T03:22:07;96443.47;;;3.38;100.00
68197;BME280;55019;49.382;11.358;2022-12-05T03:24:36;96434.19;;;3.37;100.00
68197;BME280;55019;49.382;11.358;2022-12-05T03:29:57;96421.00;;;3.32;100.00
68197;BME280;55019;49.382;11.358;2022-12-05T03:32:30;96412.41;;;3.33;100.00
68197;BME280;55019;49.382;11.358;2022-12-05T03:35:10;96409.13;;;3.31;100.00
68197;BME280;55019;49.382;11.358;2022-12-05T03:37:46;96423.81;;;3.18;100.00
68197;BME280;55019;49.382;11.358;2022-12-05T03:40:31;96432.41;;;3.17;100.00
68197;BME280;55019;49.382;11.358;2022-12-05T03:43:08;96448.53;;;3.18;100.00
68197;BME280;55019;49.382;11.358;2022-12-05T03:45:57;96442.06;;;3.14;100.00
68197;BME280;55019;49.382;11.358;2022-12-05T03:49:03;96443.94;;;3.12;100.00
68197;BME280;55019;49.382;11.358;2022-12-05T03:51:31;96447.47;;;3.20;100.00
68197;BME280;55019;49.382;11.358;2022-12-05T03:54:09;96449.59;;;3.15;100.00
68197;BME280;55019;49.382;11.358;2022-12-05T03:56:43;96450.06;;;3.09;100.00
68197;BME280;55019;49.382;11.358;2022-12-05T03:59:17;96444.72;;;3.12;100.00
68197;BME280;55019;49.382;11.358;2022-12-05T04:01:47;96438.25;;;3.08;100.00
68197;BME280;55019;49.382;11.358;2022-12-05T04:04:21;96450.78;;;3.00;100.00
68197;BME280;55019;49.382;11.358;2022-12-05T04:06:52;96455.91;;;3.00;100.00
68197;BME280;55019;49.382;11.358;2022-12-05T04:09:24;96467.03;;;2.99;100.00
68197;BME280;55019;49.382;11.358;2022-12-05T04:11:57;96466.91;;;3.01;100.00
68197;BME280;55019;49.382;11.358;2022-12-05T04:14:31;96476.06;;;3.03;100.00
68197;BME280;55019;49.382;11.358;2022-12-05T04:17:02;96483.97;;;3.00;100.00
68197;BME280;55019;49.382;11.358;2022-12-05T04:19:48;96474.94;;;2.96;100.00
68197;BME280;55019;49.382;11.358;2022-12-05T04:22:35;96496.97;;;2.97;100.00
68197;BME280;55019;49.382;11.358;2022-12-05T04:25:04;96480.53;;;2.90;100.00
68197;BME280;55019;49.382;11.358;2022-12-05T04:30:21;96492.25;;;2.82;100.00
68197;BME280;55019;49.382;11.358;2022-12-05T04:36:09;96500.22;;;2.78;100.00
68197;BME280;55019;49.382;11.358;2022-12-05T04:41:04;96509.28;;;2.71;100.00
68197;BME280;55019;49.382;11.358;2022-12-05T04:43:34;96507.22;;;2.65;100.00
68197;BME280;55019;49.382;11.358;2022-12-05T04:46:03;96515.31;;;2.70;100.00
68197;BME280;55019;49.382;11.358;2022-12-05T04:48:30;96518.34;;;2.64;100.00
68197;BME280;55019;49.382;11.358;2022-12-05T04:50:57;96519.97;;;2.65;100.00
68197;BME280;55019;49.382;11.358;2022-12-05T04:53:25;96524.34;;;2.74;100.00
68197;BME280;55019;49.382;11.358;2022-12-05T04:55:54;96506.28;;;2.66;100.00
68197;BME280;55019;49.382;11.358;2022-12-05T04:58:23;96519.41;;;2.61;100.00
68197;BME280;55019;49.382;11.358;2022-12-05T05:01:06;96520.06;;;2.52;100.00
68197;BME280;55019;49.382;11.358;2022-12-05T05:03:49;96521.13;;;2.50;100.00
68197;BME280;55019;49.382;11.358;2022-12-05T05:06:16;96512.31;;;2.54;100.00
68197;BME280;55019;49.382;11.358;2022-12-05T05:08:47;96513.94;;;2.55;100.00
68197;BME280;55019;49.382;11.358;2022-12-05T05:11:16;96516.72;;;2.52;100.00
68197;BME280;55019;49.382;11.358;2022-12-05T05:13:42;96526.00;;;2.53;100.00
68197;BME280;55019;49.382;11.358;2022-12-05T05:16:13;96525.53;;;2.59;100.00
68197;BME280;55019;49.382;11.358;2022-12-05T05:18:39;96534.81;;;2.49;100.00
68197;BME280;55019;49.382;11.358;2022-12-05T05:21:04;96530.50;;;2.49;100.00
68197;BME280;55019;49.382;11.358;2022-12-05T05:23:30;96534.81;;;2.49;100.00
68197;BME280;55019;49.382;11.358;2022-12-05T05:25:55;96537.59;;;2.57;100.00
68197;BME280;55019;49.382;11.358;2022-12-05T05:28:21;96539.69;;;2.52;100.00
68197;BME280;55019;49.382;11.358;2022-12-05T05:30:47;96538.28;;;2.48;100.00
68197;BME280;55019;49.382;11.358;2022-12-05T05:33:13;96542.91;;;2.54;100.00
68197;BME280;55019;49.382;11.358;2022-12-05T05:35:39;96538.16;;;2.49;100.00
68197;BME280;55019;49.382;11.358;2022-12-05T05:38:04;96528.78;;;2.39;100.00
68197;BME280;55019;49.382;11.358;2022-12-05T05:40:29;96521.94;;;2.39;100.00
68197;BME280;55019;49.382;11.358;2022-12-05T05:42:55;96530.88;;;2.45;100.00
68197;BME280;55019;49.382;11.358;2022-12-05T05:45:20;96535.84;;;2.46;100.00
68197;BME280;55019;49.382;11.358;2022-12-05T05:47:49;96537.13;;;2.41;100.00
68197;BME280;55019;49.382;11.358;2022-12-05T05:50:15;96529.09;;;2.34;100.00
68197;BME280;55019;49.382;11.358;2022-12-05T05:52:40;96537.34;;;2.38;100.00
68197;BME280;55019;49.382;11.358;2022-12-05T05:55:07;96541.06;;;2.45;100.00
68197;BME280;55019;49.382;11.358;2022-12-05T05:57:34;96539.78;;;2.39;100.00
68197;BME280;55019;49.382;11.358;2022-12-05T06:00:00;96551.38;;;2.43;100.00
68197;BME280;55019;49.382;11.358;2022-12-05T06:02:25;96540.69;;;2.27;100.00
68197;BME280;55019;49.382;11.358;2022-12-05T06:04:55;96544.25;;;2.25;100.00
68197;BME280;55019;49.382;11.358;2022-12-05T06:07:20;96554.75;;;2.33;100.00
68197;BME280;55019;49.382;11.358;2022-12-05T06:09:45;96556.13;;;2.37;100.00
68197;BME280;55019;49.382;11.358;2022-12-05T06:12:11;96552.06;;;2.34;100.00
68197;BME280;55019;49.382;11.358;2022-12-05T06:14:36;96562.47;;;2.31;100.00
68197;BME280;55019;49.382;11.358;2022-12-05T06:17:02;96563.72;;;2.26;100.00
68197;BME280;55019;49.382;11.358;2022-12-05T06:19:27;96564.09;;;2.32;100.00
68197;BME280;55019;49.382;11.358;2022-12-05T06:21:52;96559.84;;;2.33;100.00
68197;BME280;55019;49.382;11.358;2022-12-05T06:24:18;96561.22;;;2.37;100.00
68197;BME280;55019;49.382;11.358;2022-12-05T06:26:43;96564.09;;;2.32;100.00
68197;BME280;55019;49.382;11.358;2022-12-05T06:29:09;96564.44;;;2.28;100.00
68197;BME280;55019;49.382;11.358;2022-12-05T06:31:35;96565.72;;;2.22;100.00
68197;BME280;55019;49.382;11.358;2022-12-05T06:34:01;96570.22;;;2.19;100.00
68197;BME280;55019;49.382;11.358;2022-12-05T06:36:27;96580.88;;;2.24;100.00
68197;BME280;55019;49.382;11.358;2022-12-05T06:38:58;96581.09;;;2.10;100.00
68197;BME280;55019;49.382;11.358;2022-12-05T06:41:24;96583.88;;;2.18;100.00
68197;BME280;55019;49.382;11.358;2022-12-05T06:43:54;96579.22;;;2.12;100.00
68197;BME280;55019;49.382;11.358;2022-12-05T06:46:20;96579.72;;;2.17;100.00
68197;BME280;55019;49.382;11.358;2022-12-05T06:48:46;96584.56;;;2.20;100.00
68197;BME280;55019;49.382;11.358;2022-12-05T06:51:14;96592.69;;;2.14;99.99
68197;BME280;55019;49.382;11.358;2022-12-05T06:53:41;96599.38;;;2.04;100.00
68197;BME280;55019;49.382;11.358;2022-12-05T06:56:09;96600.53;;;2.00;100.00
68197;BME280;55019;49.382;11.358;2022-12-05T06:58:39;96595.41;;;2.00;100.00
68197;BME280;55019;49.382;11.358;2022-12-05T07:01:04;96600.53;;;2.00;99.89
68197;BME280;55019;49.382;11.358;2022-12-05T07:03:53;96607.25;;;2.01;99.85
68197;BME280;55019;49.382;11.358;2022-12-05T07:06:18;96604.69;;;2.01;100.00
68197;BME280;55019;49.382;11.358;2022-12-05T07:08:43;96605.94;;;1.95;100.00
68197;BME280;55019;49.382;11.358;2022-12-05T07:11:09;96607.28;;;2.12;99.93
68197;BME280;55019;49.382;11.358;2022-12-05T07:13:35;96613.41;;;2.09;100.00
68197;BME280;55019;49.382;11.358;2022-12-05T07:16:00;96612.56;;;1.98;100.00
68197;BME280;55019;49.382;11.358;2022-12-05T07:18:26;96616.72;;;1.99;99.92
68197;BME280;55019;49.382;11.358;2022-12-05T07:20:56;96625.53;;;1.95;99.20
68197;BME280;55019;49.382;11.358;2022-12-05T07:23:22;96630.84;;;1.92;99.55
68197;BME280;55019;49.382;11.358;2022-12-05T07:25:48;96641.59;;;1.95;99.69
68197;BME280;55019;49.382;11.358;2022-12-05T07:28:13;96648.66;;;1.92;98.54
68197;BME280;55019;49.382;11.358;2022-12-05T07:30:38;96655.16;;;1.96;97.92
68197;BME280;55019;49.382;11.358;2022-12-05T07:33:04;96645.91;;;1.95;97.39
68197;BME280;55019;49.382;11.358;2022-12-05T07:35:29;96655.34;;;2.05;97.21
68197;BME280;55019;49.382;11.358;2022-12-05T07:37:54;96658.28;;;1.99;97.34
68197;BME280;55019;49.382;11.358;2022-12-05T07:40:20;96664.31;;;1.98;97.26
68197;BME280;55019;49.382;11.358;2022-12-05T07:42:49;96668.84;;;1.95;97.65
68197;BME280;55019;49.382;11.358;2022-12-05T07:45:15;96664.66;;;1.94;98.24
68197;BME280;55019;49.382;11.358;2022-12-05T07:47:40;96666.50;;;1.92;98.03
68197;BME280;55019;49.382;11.358;2022-12-05T07:50:06;96654.03;;;2.00;97.42
68197;BME280;55019;49.382;11.358;2022-12-05T07:52:31;96658.91;;;2.03;97.12
68197;BME280;55019;49.382;11.358;2022-12-05T07:54:57;96659.81;;;2.02;96.85
68197;BME280;55019;49.382;11.358;2022-12-05T07:57:22;96652.13;;;1.91;96.88
68197;BME280;55019;49.382;11.358;2022-12-05T07:59:48;96659.44;;;1.95;97.46
68197;BME280;55019;49.382;11.358;2022-12-05T08:02:13;96670.94;;;2.01;98.16
68197;BME280;55019;49.382;11.358;2022-12-05T08:04:39;96676.66;;;2.04;97.33
68197;BME280;55019;49.382;11.358;2022-12-05T08:07:04;96677.88;;;1.99;96.38
68197;BME280;55019;49.382;11.358;2022-12-05T08:09:30;96674.19;;;2.03;97.36
68197;BME280;55019;49.382;11.358;2022-12-05T08:11:55;96666.22;;;2.07;97.10
68197;BME280;55019;49.382;11.358;2022-12-05T08:14:21;96679.25;;;2.15;96.42
68197;BME280;55019;49.382;11.358;2022-12-05T08:16:46;96673.50;;;2.01;97.60
68197;BME280;55019;49.382;11.358;2022-12-05T08:19:11;96681.53;;;2.07;97.58
68197;BME280;55019;49.382;11.358;2022-12-05T08:21:37;96680.91;;;2.04;97.53
68197;BME280;55019;49.382;11.358;2022-12-05T08:24:04;96680.31;;;2.00;98.62
68197;BME280;55019;49.382;11.358;2022-12-05T08:26:31;96695.69;;;2.11;97.56
68197;BME280;55019;49.382;11.358;2022-12-05T08:28:59;96684.91;;;2.19;97.18
68197;BME280;55019;49.382;11.358;2022-12-05T08:31:26;96681.66;;;2.17;97.48
68197;BME280;55019;49.382;11.358;2022-12-05T08:33:55;96686.41;;;2.10;97.12
68197;BME280;55019;49.382;11.358;2022-12-05T08:36:21;96701.63;;;2.23;97.98
68197;BME280;55019;49.382;11.358;2022-12-05T08:38:46;96693.25;;;2.21;97.76
68197;BME280;55019;49.382;11.358;2022-12-05T08:41:16;96697.00;;;2.28;98.23
68197;BME280;55019;49.382;11.358;2022-12-05T08:43:43;96712.84;;;2.20;97.96
68197;BME280;55019;49.382;11.358;2022-12-05T08:46:09;96710.19;;;2.22;98.72
68197;BME280;55019;49.382;11.358;2022-12-05T08:48:35;96713.44;;;2.24;98.48
68197;BME280;55019;49.382;11.358;2022-12-05T08:51:06;96724.47;;;2.24;98.19
68197;BME280;55019;49.382;11.358;2022-12-05T08:53:31;96727.94;;;2.23;98.16
68197;BME280;55019;49.382;11.358;2022-12-05T08:56:04;96728.59;;;2.14;98.84
68197;BME280;55019;49.382;11.358;2022-12-05T08:58:30;96725.97;;;2.27;98.69
68197;BME280;55019;49.382;11.358;2022-12-05T09:01:19;96739.53;;;2.27;98.59
68197;BME280;55019;49.382;11.358;2022-12-05T09:03:45;96745.03;;;2.34;98.74
68197;BME280;55019;49.382;11.358;2022-12-05T09:06:19;96731.44;;;2.33;98.04
68197;BME280;55019;49.382;11.358;2022-12-05T09:08:46;96742.25;;;2.37;98.29
68197;BME280;55019;49.382;11.358;2022-12-05T09:11:17;96736.22;;;2.38;98.11
68197;BME280;55019;49.382;11.358;2022-12-05T09:13:44;96739.94;;;2.34;98.31
68197;BME280;55019;49.382;11.358;2022-12-05T09:16:21;96753.81;;;2.30;98.66
68197;BME280;55019;49.382;11.358;2022-12-05T09:18:47;96759.31;;;2.24;99.21
68197;BME280;55019;49.382;11.358;2022-12-05T09:21:15;96762.31;;;2.18;99.09
68197;BME280;55019;49.382;11.358;2022-12-05T09:23:41;96767.56;;;2.04;99.47
68197;BME280;55019;49.382;11.358;2022-12-05T09:26:10;96776.63;;;2.08;99.83
68197;BME280;55019;49.382;11.358;2022-12-05T09:28:36;96774.56;;;2.13;99.79
68197;BME280;55019;49.382;11.358;2022-12-05T09:31:10;96785.16;;;2.19;99.20
68197;BME280;55019;49.382;11.358;2022-12-05T09:33:37;96786.66;;;2.22;98.74
68197;BME280;55019;49.382;11.358;2022-12-05T09:36:04;96785.25;;;2.18;98.42
68197;BME280;55019;49.382;11.358;2022-12-05T09:38:29;96784.00;;;2.23;98.41
68197;BME280;55019;49.382;11.358;2022-12-05T09:44:38;96775.22;;;2.27;97.86
68197;BME280;55019;49.382;11.358;2022-12-05T09:49:54;96765.22;;;2.37;97.26
68197;BME280;55019;49.382;11.358;2022-12-05T09:52:26;96766.16;;;2.47;97.70
68197;BME280;55019;49.382;11.358;2022-12-05T09:54:53;96757.59;;;2.48;97.17
68197;BME280;55019;49.382;11.358;2022-12-05T09:57:41;96757.25;;;2.52;97.15
68197;BME280;55019;49.382;11.358;2022-12-05T10:00:09;96748.56;;;2.55;96.78
68197;BME280;55019;49.382;11.358;2022-12-05T10:05:09;96743.47;;;2.55;96.72
68197;BME280;55019;49.382;11.358;2022-12-05T10:07:42;96753.47;;;2.58;96.47
68197;BME280;55019;49.382;11.358;2022-12-05T10:10:33;96740.09;;;2.54;96.59
68197;BME280;55019;49.382;11.358;2022-12-05T10:13:14;96752.53;;;2.59;97.07
68197;BME280;55019;49.382;11.358;2022-12-05T10:15:52;96749.44;;;2.66;97.23
68197;BME280;55019;49.382;11.358;2022-12-05T10:18:42;96754.19;;;2.71;96.33
68197;BME280;55019;49.382;11.358;2022-12-05T10:21:11;96754.19;;;2.71;96.75
68197;BME280;55019;49.382;11.358;2022-12-05T10:24:00;96747.72;;;2.78;96.13
68197;BME280;55019;49.382;11.358;2022-12-05T10:26:30;96739.41;;;2.86;96.20
68197;BME280;55019;49.382;11.358;2022-12-05T10:31:29;96736.94;;;2.74;96.39
68197;BME280;55019;49.382;11.358;2022-12-05T10:34:09;96741.50;;;2.82;96.05
68197;BME280;55019;49.382;11.358;2022-12-05T10:36:37;96746.72;;;2.91;95.36
68197;BME280;55019;49.382;11.358;2022-12-05T10:39:02;96748.25;;;2.93;95.88
68197;BME280;55019;49.382;11.358;2022-12-05T10:41:28;96739.50;;;2.85;95.81
68197;BME280;55019;49.382;11.358;2022-12-05T10:43:55;96748.56;;;2.89;95.82
68197;BME280;55019;49.382;11.358;2022-12-05T10:46:22;96745.09;;;2.90;95.36
68197;BME280;55019;49.382;11.358;2022-12-05T10:48:47;96743.25;;;2.92;95.72
68197;BME280;55019;49.382;11.358;2022-12-05T10:51:16;96743.91;;;2.83;95.26
68197;BME280;55019;49.382;11.358;2022-12-05T10:53:47;96745.66;;;2.83;95.10
68197;BME280;55019;49.382;11.358;2022-12-05T10:56:40;96754.41;;;2.68;96.73
68197;BME280;55019;49.382;11.358;2022-12-05T10:59:08;96754.25;;;2.82;95.78
68197;BME280;55019;49.382;11.358;2022-12-05T11:01:35;96742.88;;;2.85;95.63
68197;BME280;55019;49.382;11.358;2022-12-05T11:04:17;96750.91;;;3.03;95.73
68197;BME280;55019;49.382;11.358;2022-12-05T11:06:52;96750.34;;;2.99;95.60
68197;BME280;55019;49.382;11.358;2022-12-05T11:09:22;96746.84;;;3.00;94.38
68197;BME280;55019;49.382;11.358;2022-12-05T11:12:13;96753.81;;;2.98;94.38
68197;BME280;55019;49.382;11.358;2022-12-05T11:14:52;96746.25;;;2.97;94.84
68197;BME280;55019;49.382;11.358;2022-12-05T11:17:24;96747.88;;;2.87;95.40
68197;BME280;55019;49.382;11.358;2022-12-05T11:19:50;96754.13;;;2.83;95.70
68197;BME280;55019;49.382;11.358;2022-12-05T11:22:16;96753.31;;;2.83;95.43
68197;BME280;55019;49.382;11.358;2022-12-05T11:24:42;96754.72;;;2.86;96.02
68197;BME280;55019;49.382;11.358;2022-12-05T11:29:45;96758.84;;;2.77;96.74
68197;BME280;55019;49.382;11.358;2022-12-05T11:32:30;96753.97;;;2.74;97.20
68197;BME280;55019;49.382;11.358;2022-12-05T11:35:03;96752.94;;;2.76;97.47
68197;BME280;55019;49.382;11.358;2022-12-05T11:37:44;96757.66;;;2.70;98.32
68197;BME280;55019;49.382;11.358;2022-12-05T11:40:20;96744.38;;;2.77;97.71
68197;BME280;55019;49.382;11.358;2022-12-05T11:43:13;96744.13;;;2.80;97.87
68197;BME280;55019;49.382;11.358;2022-12-05T11:48:39;96733.94;;;2.91;96.99
68197;BME280;55019;49.382;11.358;2022-12-05T11:56:36;96727.97;;;3.14;95.33
68197;BME280;55019;49.382;11.358;2022-12-05T11:59:38;96729.22;;;3.08;96.43
68197;BME280;55019;49.382;11.358;2022-12-05T12:05:05;96719.16;;;3.07;95.60
68197;BME280;55019;49.382;11.358;2022-12-05T12:13:33;96717.31;;;3.20;95.90
68197;BME280;55019;49.382;11.358;2022-12-05T12:16:32;96718.44;;;3.05;96.59
68197;BME280;55019;49.382;11.358;2022-12-05T12:19:10;96717.03;;;3.01;97.16
68197;BME280;55019;49.382;11.358;2022-12-05T12:42:55;96725.28;;;2.93;98.30
68197;BME280;55019;49.382;11.358;2022-12-05T12:45:33;96711.00;;;2.91;98.18
68197;BME280;55019;49.382;11.358;2022-12-05T12:48:20;96723.19;;;2.87;98.65
68197;BME280;55019;49.382;11.358;2022-12-05T12:50:52;96723.97;;;2.88;98.98
68197;BME280;55019;49.382;11.358;2022-12-05T13:06:55;96712.03;;;2.88;99.80
68197;BME280;55019;49.382;11.358;2022-12-05T13:11:55;96710.13;;;2.79;99.92
68197;BME280;55019;49.382;11.358;2022-12-05T13:14:24;96711.59;;;2.94;99.62
68197;BME280;55019;49.382;11.358;2022-12-05T13:16:53;96701.22;;;2.85;99.43
68197;BME280;55019;49.382;11.358;2022-12-05T13:21:52;96714.84;;;2.96;99.67
68197;BME280;55019;49.382;11.358;2022-12-05T13:24:24;96701.84;;;2.88;100.00
68197;BME280;55019;49.382;11.358;2022-12-05T13:26:51;96702.28;;;2.83;100.00
68197;BME280;55019;49.382;11.358;2022-12-05T13:29:28;96704.25;;;2.90;100.00
68197;BME280;55019;49.382;11.358;2022-12-05T13:31:54;96702.84;;;2.86;100.00
68197;BME280;55019;49.382;11.358;2022-12-05T13:36:52;96719.34;;;2.93;100.00
68197;BME280;55019;49.382;11.358;2022-12-05T13:39:37;96716.31;;;2.88;100.00
68197;BME280;55019;49.382;11.358;2022-12-05T13:42:24;96716.91;;;2.91;100.00
68197;BME280;55019;49.382;11.358;2022-12-05T13:45:06;96720.41;;;3.01;100.00
68197;BME280;55019;49.382;11.358;2022-12-05T13:53:04;96721.91;;;3.04;100.00
68197;BME280;55019;49.382;11.358;2022-12-05T13:55:52;96720.41;;;3.01;100.00
68197;BME280;55019;49.382;11.358;2022-12-05T14:00:44;96724.81;;;2.99;100.00
68197;BME280;55019;49.382;11.358;2022-12-05T14:05:48;96728.75;;;3.03;100.00
68197;BME280;55019;49.382;11.358;2022-12-05T14:15:47;96726.47;;;3.22;100.00
68197;BME280;55019;49.382;11.358;2022-12-05T14:21:25;96720.66;;;3.09;100.00
68197;BME280;55019;49.382;11.358;2022-12-05T14:24:06;96720.88;;;3.06;100.00
68197;BME280;55019;49.382;11.358;2022-12-05T14:29:38;96722.97;;;3.01;100.00
68197;BME280;55019;49.382;11.358;2022-12-05T14:34:46;96724.25;;;3.07;100.00
68197;BME280;55019;49.382;11.358;2022-12-05T14:39:45;96702.09;;;3.07;100.00
68197;BME280;55019;49.382;11.358;2022-12-05T14:44:50;96702.06;;;2.85;100.00
68197;BME280;55019;49.382;11.358;2022-12-05T14:47:19;96699.97;;;2.90;100.00
68197;BME280;55019;49.382;11.358;2022-12-05T14:49:55;96709.72;;;2.96;100.00
68197;BME280;55019;49.382;11.358;2022-12-05T14:52:26;96712.06;;;2.99;100.00
68197;BME280;55019;49.382;11.358;2022-12-05T14:54:57;96706.25;;;3.08;100.00
68197;BME280;55019;49.382;11.358;2022-12-05T14:57:24;96712.53;;;3.04;100.00
68197;BME280;55019;49.382;11.358;2022-12-05T14:59:53;96712.97;;;2.98;100.00
68197;BME280;55019;49.382;11.358;2022-12-05T15:02:26;96719.72;;;2.99;100.00
68197;BME280;55019;49.382;11.358;2022-12-05T15:05:31;96718.31;;;3.06;100.00
68197;BME280;55019;49.382;11.358;2022-12-05T15:07:58;96720.72;;;2.97;100.00
68197;BME280;55019;49.382;11.358;2022-12-05T15:10:32;96722.03;;;2.91;100.00
68197;BME280;55019;49.382;11.358;2022-12-05T15:13:18;96715.25;;;2.79;100.00
68197;BME280;55019;49.382;11.358;2022-12-05T15:15:54;96716.69;;;2.83;100.00
68197;BME280;55019;49.382;11.358;2022-12-05T15:18:27;96719.56;;;2.90;100.00
68197;BME280;55019;49.382;11.358;2022-12-05T15:23:42;96721.78;;;2.94;100.00
68197;BME280;55019;49.382;11.358;2022-12-05T15:31:28;96733.63;;;2.95;100.00
68197;BME280;55019;49.382;11.358;2022-12-05T15:33:58;96730.38;;;2.93;100.00
68197;BME280;55019;49.382;11.358;2022-12-05T15:36:29;96722.72;;;2.93;100.00
68197;BME280;55019;49.382;11.358;2022-12-05T15:38:57;96735.25;;;2.96;100.00